sensor_id;sensor_type;location;lat;lon;timestamp;pressure;altitude;pressure_sealevel;temperature;humidity
42169;BME280;27838;43.858;25.974;2023-03-03T00:01:12;101478.44;;;8.53;58.47
42169;BME280;27838;43.858;25.974;2023-03-03T00:03:39;101477.56;;;8.53;58.53
42169;BME280;27838;43.858;25.974;2023-03-03T00:06:09;101479.31;;;8.54;58.99
42169;BME280;27838;43.858;25.974;2023-03-03T00:08:36;101481.09;;;8.55;58.55
42169;BME280;27838;43.858;25.974;2023-03-03T00:11:03;101472.44;;;8.56;58.72
42169;BME280;27838;43.858;25.974;2023-03-03T00:13:33;101468.13;;;8.58;58.92
42169;BME280;27838;43.858;25.974;2023-03-03T00:18:46;101465.59;;;8.61;58.80
42169;BME280;27838;43.858;25.974;2023-03-03T00:21:30;101463.00;;;8.61;59.17
42169;BME280;27838;43.858;25.974;2023-03-03T00:24:24;101462.16;;;8.62;58.94
42169;BME280;27838;43.858;25.974;2023-03-03T00:26:55;101447.44;;;8.62;58.89
42169;BME280;27838;43.858;25.974;2023-03-03T00:29:39;101451.72;;;8.59;58.77
42169;BME280;27838;43.858;25.974;2023-03-03T00:32:21;101451.63;;;8.56;59.17
42169;BME280;27838;43.858;25.974;2023-03-03T00:34:50;101434.28;;;8.53;59.00
42169;BME280;27838;43.858;25.974;2023-03-03T00:40:10;101435.38;;;8.66;57.93
42169;BME280;27838;43.858;25.974;2023-03-03T00:42:40;101433.78;;;8.73;57.75
42169;BME280;27838;43.858;25.974;2023-03-03T00:45:30;101432.03;;;8.72;57.91
42169;BME280;27838;43.858;25.974;2023-03-03T00:47:57;101418.97;;;8.67;58.50
42169;BME280;27838;43.858;25.974;2023-03-03T00:53:00;101422.53;;;8.72;57.77
42169;BME280;27838;43.858;25.974;2023-03-03T00:55:27;101419.00;;;8.70;58.54
42169;BME280;27838;43.858;25.974;2023-03-03T00:57:53;101415.50;;;8.68;58.54
42169;BME280;27838;43.858;25.974;2023-03-03T01:00:20;101409.44;;;8.67;58.01
42169;BME280;27838;43.858;25.974;2023-03-03T01:02:47;101419.00;;;8.68;58.25
42169;BME280;27838;43.858;25.974;2023-03-03T01:05:15;101409.44;;;8.67;58.08
42169;BME280;27838;43.858;25.974;2023-03-03T01:07:42;101406.75;;;8.64;58.49
42169;BME280;27838;43.858;25.974;2023-03-03T01:10:09;101399.91;;;8.68;58.23
42169;BME280;27838;43.858;25.974;2023-03-03T01:12:36;101391.16;;;8.64;58.02
42169;BME280;27838;43.858;25.974;2023-03-03T01:15:05;101399.81;;;8.62;58.16
42169;BME280;27838;43.858;25.974;2023-03-03T01:17:32;101401.47;;;8.58;58.62
42169;BME280;27838;43.858;25.974;2023-03-03T01:20:00;101395.41;;;8.59;58.53
42169;BME280;27838;43.858;25.974;2023-03-03T01:22:27;101393.69;;;8.61;58.68
42169;BME280;27838;43.858;25.974;2023-03-03T01:24:53;101379.81;;;8.59;58.31
42169;BME280;27838;43.858;25.974;2023-03-03T01:27:20;101391.03;;;8.57;58.63
42169;BME280;27838;43.858;25.974;2023-03-03T01:29:46;101388.50;;;8.60;58.49
42169;BME280;27838;43.858;25.974;2023-03-03T01:32:13;101380.75;;;8.63;58.33
42169;BME280;27838;43.858;25.974;2023-03-03T01:34:39;101381.63;;;8.62;58.32
42169;BME280;27838;43.858;25.974;2023-03-03T01:37:06;101382.44;;;8.61;58.89
42169;BME280;27838;43.858;25.974;2023-03-03T01:39:32;101377.25;;;8.61;58.31
42169;BME280;27838;43.858;25.974;2023-03-03T01:41:59;101378.16;;;8.63;58.93
42169;BME280;27838;43.858;25.974;2023-03-03T01:44:25;101379.88;;;8.62;58.22
42169;BME280;27838;43.858;25.974;2023-03-03T01:47:33;101375.53;;;8.63;58.60
42169;BME280;27838;43.858;25.974;2023-03-03T01:49:57;101377.25;;;8.61;58.59
42169;BME280;27838;43.858;25.974;2023-03-03T01:52:45;101377.13;;;8.53;59.27
42169;BME280;27838;43.858;25.974;2023-03-03T01:55:24;101377.09;;;8.52;59.24
42169;BME280;27838;43.858;25.974;2023-03-03T01:58:01;101373.63;;;8.53;58.79
42169;BME280;27838;43.858;25.974;2023-03-03T02:00:30;101378.84;;;8.54;59.48
42169;BME280;27838;43.858;25.974;2023-03-03T02:02:58;101373.66;;;8.54;59.28
42169;BME280;27838;43.858;25.974;2023-03-03T02:05:24;101370.25;;;8.57;58.89
42169;BME280;27838;43.858;25.974;2023-03-03T02:07:51;101364.22;;;8.59;58.54
42169;BME280;27838;43.858;25.974;2023-03-03T02:10:19;101355.53;;;8.57;58.80
42169;BME280;27838;43.858;25.974;2023-03-03T02:12:52;101360.69;;;8.56;58.65
42169;BME280;27838;43.858;25.974;2023-03-03T02:17:48;101351.97;;;8.52;58.63
42169;BME280;27838;43.858;25.974;2023-03-03T02:25:41;101354.50;;;8.47;58.85
42169;BME280;27838;43.858;25.974;2023-03-03T02:28:09;101348.28;;;8.41;58.44
42169;BME280;27838;43.858;25.974;2023-03-03T02:30:37;101349.09;;;8.40;58.35
42169;BME280;27838;43.858;25.974;2023-03-03T02:33:05;101350.78;;;8.36;58.20
42169;BME280;27838;43.858;25.974;2023-03-03T02:35:34;101357.66;;;8.34;58.82
42169;BME280;27838;43.858;25.974;2023-03-03T02:41:12;101349.94;;;8.37;58.14
42169;BME280;27838;43.858;25.974;2023-03-03T02:44:06;101352.44;;;8.32;58.56
42169;BME280;27838;43.858;25.974;2023-03-03T02:46:42;101353.34;;;8.35;58.43
42169;BME280;27838;43.858;25.974;2023-03-03T02:49:10;101348.19;;;8.36;58.15
42169;BME280;27838;43.858;25.974;2023-03-03T02:51:38;101353.47;;;8.41;58.34
42169;BME280;27838;43.858;25.974;2023-03-03T02:54:06;101344.81;;;8.42;58.25
42169;BME280;27838;43.858;25.974;2023-03-03T02:56:33;101349.22;;;8.43;58.12
42169;BME280;27838;43.858;25.974;2023-03-03T02:59:00;101347.38;;;8.40;57.95
42169;BME280;27838;43.858;25.974;2023-03-03T03:01:27;101351.75;;;8.41;59.17
42169;BME280;27838;43.858;25.974;2023-03-03T03:03:55;101345.66;;;8.39;58.96
42169;BME280;27838;43.858;25.974;2023-03-03T03:06:22;101343.94;;;8.41;58.46
42169;BME280;27838;43.858;25.974;2023-03-03T03:08:49;101348.38;;;8.45;58.34
42169;BME280;27838;43.858;25.974;2023-03-03T03:11:15;101345.88;;;8.50;58.30
42169;BME280;27838;43.858;25.974;2023-03-03T03:13:42;101346.72;;;8.49;58.16
42169;BME280;27838;43.858;25.974;2023-03-03T03:16:09;101347.53;;;8.46;58.68
42169;BME280;27838;43.858;25.974;2023-03-03T03:18:35;101339.59;;;8.40;59.12
42169;BME280;27838;43.858;25.974;2023-03-03T03:21:07;101343.16;;;8.42;58.66
42169;BME280;27838;43.858;25.974;2023-03-03T03:23:34;101331.03;;;8.43;58.43
42169;BME280;27838;43.858;25.974;2023-03-03T03:26:01;101331.09;;;8.46;58.39
42169;BME280;27838;43.858;25.974;2023-03-03T03:28:27;101334.56;;;8.46;58.68
42169;BME280;27838;43.858;25.974;2023-03-03T03:30:54;101326.75;;;8.46;59.05
42169;BME280;27838;43.858;25.974;2023-03-03T03:33:21;101331.88;;;8.43;58.91
42169;BME280;27838;43.858;25.974;2023-03-03T03:35:48;101327.56;;;8.44;58.70
42169;BME280;27838;43.858;25.974;2023-03-03T03:38:16;101321.56;;;8.46;59.06
42169;BME280;27838;43.858;25.974;2023-03-03T03:40:42;101326.69;;;8.43;59.14
42169;BME280;27838;43.858;25.974;2023-03-03T03:43:09;101325.81;;;8.43;59.26
42169;BME280;27838;43.858;25.974;2023-03-03T03:45:35;101316.22;;;8.40;58.92
42169;BME280;27838;43.858;25.974;2023-03-03T03:48:02;101321.50;;;8.43;59.52
42169;BME280;27838;43.858;25.974;2023-03-03T03:50:29;101317.91;;;8.38;59.55
42169;BME280;27838;43.858;25.974;2023-03-03T03:52:56;101317.94;;;8.40;59.17
42169;BME280;27838;43.858;25.974;2023-03-03T03:55:22;101322.28;;;8.39;59.64
42169;BME280;27838;43.858;25.974;2023-03-03T03:57:49;101326.59;;;8.40;59.36
42169;BME280;27838;43.858;25.974;2023-03-03T04:00:16;101322.38;;;8.42;59.73
42169;BME280;27838;43.858;25.974;2023-03-03T04:02:42;101324.88;;;8.39;59.65
42169;BME280;27838;43.858;25.974;2023-03-03T04:05:09;101329.16;;;8.37;60.20
42169;BME280;27838;43.858;25.974;2023-03-03T04:07:35;101321.31;;;8.34;60.19
42169;BME280;27838;43.858;25.974;2023-03-03T04:10:03;101323.03;;;8.34;60.22
42169;BME280;27838;43.858;25.974;2023-03-03T04:12:29;101322.94;;;8.29;60.17
42169;BME280;27838;43.858;25.974;2023-03-03T04:15:09;101313.38;;;8.28;60.35
42169;BME280;27838;43.858;25.974;2023-03-03T04:17:37;101314.19;;;8.24;60.68
42169;BME280;27838;43.858;25.974;2023-03-03T04:20:04;101310.63;;;8.19;60.70
42169;BME280;27838;43.858;25.974;2023-03-03T04:22:31;101315.81;;;8.19;60.90
42169;BME280;27838;43.858;25.974;2023-03-03T04:25:04;101311.47;;;8.19;59.77
42169;BME280;27838;43.858;25.974;2023-03-03T04:27:34;101317.69;;;8.26;60.56
42169;BME280;27838;43.858;25.974;2023-03-03T04:30:03;101319.44;;;8.27;60.28
42169;BME280;27838;43.858;25.974;2023-03-03T04:32:30;101306.31;;;8.21;60.34
42169;BME280;27838;43.858;25.974;2023-03-03T04:34:58;101321.84;;;8.18;60.82
42169;BME280;27838;43.858;25.974;2023-03-03T04:37:25;101325.34;;;8.18;61.10
42169;BME280;27838;43.858;25.974;2023-03-03T04:39:51;101316.69;;;8.19;60.52
42169;BME280;27838;43.858;25.974;2023-03-03T04:42:18;101315.81;;;8.19;60.62
42169;BME280;27838;43.858;25.974;2023-03-03T04:44:44;101319.38;;;8.24;60.66
42169;BME280;27838;43.858;25.974;2023-03-03T04:47:11;101321.13;;;8.25;60.57
42169;BME280;27838;43.858;25.974;2023-03-03T04:49:37;101322.03;;;8.27;60.53
42169;BME280;27838;43.858;25.974;2023-03-03T04:52:04;101317.72;;;8.27;60.35
42169;BME280;27838;43.858;25.974;2023-03-03T04:54:31;101313.44;;;8.31;61.00
42169;BME280;27838;43.858;25.974;2023-03-03T04:56:58;101312.63;;;8.32;60.27
42169;BME280;27838;43.858;25.974;2023-03-03T04:59:24;101315.38;;;8.41;60.20
42169;BME280;27838;43.858;25.974;2023-03-03T05:01:51;101297.00;;;8.30;60.49
42169;BME280;27838;43.858;25.974;2023-03-03T05:04:17;101311.91;;;8.41;60.48
42169;BME280;27838;43.858;25.974;2023-03-03T05:06:44;101319.75;;;8.42;60.43
42169;BME280;27838;43.858;25.974;2023-03-03T05:09:10;101318.03;;;8.43;60.37
42169;BME280;27838;43.858;25.974;2023-03-03T05:11:37;101317.09;;;8.41;60.99
42169;BME280;27838;43.858;25.974;2023-03-03T05:14:04;101315.28;;;8.37;60.62
42169;BME280;27838;43.858;25.974;2023-03-03T05:16:32;101316.22;;;8.39;60.46
42169;BME280;27838;43.858;25.974;2023-03-03T05:18:59;101321.50;;;8.43;60.58
42169;BME280;27838;43.858;25.974;2023-03-03T05:21:25;101316.38;;;8.46;60.76
42169;BME280;27838;43.858;25.974;2023-03-03T05:23:52;101314.56;;;8.44;60.69
42169;BME280;27838;43.858;25.974;2023-03-03T05:26:18;101314.47;;;8.39;60.96
42169;BME280;27838;43.858;25.974;2023-03-03T05:28:45;101313.59;;;8.40;60.31
42169;BME280;27838;43.858;25.974;2023-03-03T05:31:11;101320.53;;;8.40;61.06
42169;BME280;27838;43.858;25.974;2023-03-03T05:33:38;101317.94;;;8.40;61.22
42169;BME280;27838;43.858;25.974;2023-03-03T05:36:04;101315.28;;;8.37;61.40
42169;BME280;27838;43.858;25.974;2023-03-03T05:38:31;101321.38;;;8.37;60.97
42169;BME280;27838;43.858;25.974;2023-03-03T05:40:57;101330.16;;;8.42;60.45
42169;BME280;27838;43.858;25.974;2023-03-03T05:43:24;101329.22;;;8.42;60.97
42169;BME280;27838;43.858;25.974;2023-03-03T05:45:55;101333.56;;;8.41;60.94
42169;BME280;27838;43.858;25.974;2023-03-03T05:48:21;101334.41;;;8.42;60.93
42169;BME280;27838;43.858;25.974;2023-03-03T05:50:48;101323.03;;;8.35;61.45
42169;BME280;27838;43.858;25.974;2023-03-03T05:53:15;101323.06;;;8.37;61.28
42169;BME280;27838;43.858;25.974;2023-03-03T05:55:41;101325.75;;;8.41;61.67
42169;BME280;27838;43.858;25.974;2023-03-03T05:58:08;101324.97;;;8.42;60.97
42169;BME280;27838;43.858;25.974;2023-03-03T06:00:34;101330.25;;;8.48;61.03
42169;BME280;27838;43.858;25.974;2023-03-03T06:03:01;101322.50;;;8.50;60.94
42169;BME280;27838;43.858;25.974;2023-03-03T06:05:27;101326.84;;;8.51;61.38
42169;BME280;27838;43.858;25.974;2023-03-03T06:07:54;101329.47;;;8.54;61.27
42169;BME280;27838;43.858;25.974;2023-03-03T06:10:20;101326.88;;;8.54;60.89
42169;BME280;27838;43.858;25.974;2023-03-03T06:12:47;101324.25;;;8.53;60.91
42169;BME280;27838;43.858;25.974;2023-03-03T06:15:13;101330.38;;;8.55;61.01
42169;BME280;27838;43.858;25.974;2023-03-03T06:17:41;101321.72;;;8.56;60.78
42169;BME280;27838;43.858;25.974;2023-03-03T06:20:08;101330.44;;;8.59;61.28
42169;BME280;27838;43.858;25.974;2023-03-03T06:22:35;101324.34;;;8.57;61.21
42169;BME280;27838;43.858;25.974;2023-03-03T06:25:01;101325.19;;;8.55;61.88
42169;BME280;27838;43.858;25.974;2023-03-03T06:27:28;101341.72;;;8.60;61.91
42169;BME280;27838;43.858;25.974;2023-03-03T06:29:54;101338.22;;;8.58;61.12
42169;BME280;27838;43.858;25.974;2023-03-03T06:32:21;101339.28;;;8.69;62.09
42169;BME280;27838;43.858;25.974;2023-03-03T06:34:47;101341.09;;;8.73;61.44
42169;BME280;27838;43.858;25.974;2023-03-03T06:37:14;101338.56;;;8.78;61.17
42169;BME280;27838;43.858;25.974;2023-03-03T06:39:41;101323.78;;;8.75;61.50
42169;BME280;27838;43.858;25.974;2023-03-03T06:42:07;101337.84;;;8.86;61.42
42169;BME280;27838;43.858;25.974;2023-03-03T06:44:34;101330.91;;;8.85;61.44
42169;BME280;27838;43.858;25.974;2023-03-03T06:47:01;101336.22;;;8.92;61.64
42169;BME280;27838;43.858;25.974;2023-03-03T06:49:28;101346.63;;;8.93;61.55
42169;BME280;27838;43.858;25.974;2023-03-03T06:51:54;101345.00;;;9.00;61.67
42169;BME280;27838;43.858;25.974;2023-03-03T06:54:26;101342.38;;;8.97;61.37
42169;BME280;27838;43.858;25.974;2023-03-03T06:56:57;101346.72;;;8.99;61.21
42169;BME280;27838;43.858;25.974;2023-03-03T06:59:26;101345.94;;;9.05;61.49
42169;BME280;27838;43.858;25.974;2023-03-03T07:01:53;101345.09;;;9.06;61.38
42169;BME280;27838;43.858;25.974;2023-03-03T07:04:28;101339.13;;;9.12;61.27
42169;BME280;27838;43.858;25.974;2023-03-03T07:07:12;101334.81;;;9.12;60.97
42169;BME280;27838;43.858;25.974;2023-03-03T07:09:43;101327.03;;;9.15;61.27
42169;BME280;27838;43.858;25.974;2023-03-03T07:12:14;101332.34;;;9.21;61.33
42169;BME280;27838;43.858;25.974;2023-03-03T07:14:43;101331.53;;;9.25;61.60
42169;BME280;27838;43.858;25.974;2023-03-03T07:17:15;101341.88;;;9.21;61.46
42169;BME280;27838;43.858;25.974;2023-03-03T07:19:42;101330.59;;;9.20;61.61
42169;BME280;27838;43.858;25.974;2023-03-03T07:22:16;101324.50;;;9.18;61.60
42169;BME280;27838;43.858;25.974;2023-03-03T07:24:46;101325.41;;;9.22;61.31
42169;BME280;27838;43.858;25.974;2023-03-03T07:27:16;101328.94;;;9.25;61.66
42169;BME280;27838;43.858;25.974;2023-03-03T07:29:50;101322.09;;;9.32;61.76
42169;BME280;27838;43.858;25.974;2023-03-03T07:34:54;101316.16;;;9.41;61.72
42169;BME280;27838;43.858;25.974;2023-03-03T07:37:25;101316.19;;;9.44;61.16
42169;BME280;27838;43.858;25.974;2023-03-03T07:39:54;101326.50;;;9.38;60.57
42169;BME280;27838;43.858;25.974;2023-03-03T07:44:54;101316.91;;;9.34;60.58
42169;BME280;27838;43.858;25.974;2023-03-03T07:47:26;101320.38;;;9.34;61.39
42169;BME280;27838;43.858;25.974;2023-03-03T07:50:28;101312.63;;;9.37;61.35
42169;BME280;27838;43.858;25.974;2023-03-03T07:52:54;101308.44;;;9.49;60.47
42169;BME280;27838;43.858;25.974;2023-03-03T07:55:38;101313.78;;;9.58;61.02
42169;BME280;27838;43.858;25.974;2023-03-03T08:03:44;101312.06;;;9.60;60.23
42169;BME280;27838;43.858;25.974;2023-03-03T08:14:37;101302.41;;;9.51;60.24
42169;BME280;27838;43.858;25.974;2023-03-03T08:17:16;101300.66;;;9.50;60.52
42169;BME280;27838;43.858;25.974;2023-03-03T08:19:45;101309.28;;;9.46;60.53
42169;BME280;27838;43.858;25.974;2023-03-03T08:22:15;101298.91;;;9.48;60.68
42169;BME280;27838;43.858;25.974;2023-03-03T08:24:43;101309.41;;;9.55;60.42
42169;BME280;27838;43.858;25.974;2023-03-03T08:27:10;101306.88;;;9.60;59.53
42169;BME280;27838;43.858;25.974;2023-03-03T08:29:36;101300.94;;;9.70;59.46
42169;BME280;27838;43.858;25.974;2023-03-03T08:32:03;101301.91;;;9.80;59.04
42169;BME280;27838;43.858;25.974;2023-03-03T08:34:29;101297.63;;;9.85;59.26
42169;BME280;27838;43.858;25.974;2023-03-03T08:36:56;101296.78;;;9.86;59.27
42169;BME280;27838;43.858;25.974;2023-03-03T08:39:23;101288.97;;;9.86;58.69
42169;BME280;27838;43.858;25.974;2023-03-03T08:41:49;101290.69;;;9.84;59.23
42169;BME280;27838;43.858;25.974;2023-03-03T08:44:16;101293.34;;;9.90;58.89
42169;BME280;27838;43.858;25.974;2023-03-03T08:46:43;101280.44;;;9.96;59.09
42169;BME280;27838;43.858;25.974;2023-03-03T08:49:10;101281.28;;;9.97;58.20
42169;BME280;27838;43.858;25.974;2023-03-03T08:51:37;101277.88;;;10.02;58.96
42169;BME280;27838;43.858;25.974;2023-03-03T08:54:04;101285.81;;;10.12;58.10
42169;BME280;27838;43.858;25.974;2023-03-03T08:56:30;101285.91;;;10.21;58.25
42169;BME280;27838;43.858;25.974;2023-03-03T08:58:57;101279.81;;;10.20;57.68
42169;BME280;27838;43.858;25.974;2023-03-03T09:01:24;101279.88;;;10.28;56.98
42169;BME280;27838;43.858;25.974;2023-03-03T09:03:50;101279.03;;;10.31;57.80
42169;BME280;27838;43.858;25.974;2023-03-03T09:06:17;101271.41;;;10.43;57.32
42169;BME280;27838;43.858;25.974;2023-03-03T09:08:43;101265.34;;;10.49;57.51
42169;BME280;27838;43.858;25.974;2023-03-03T09:11:13;101272.34;;;10.53;57.03
42169;BME280;27838;43.858;25.974;2023-03-03T09:13:45;101269.75;;;10.56;56.99
42169;BME280;27838;43.858;25.974;2023-03-03T09:16:17;101266.41;;;10.71;56.77
42169;BME280;27838;43.858;25.974;2023-03-03T09:18:44;101259.47;;;10.71;56.79
42169;BME280;27838;43.858;25.974;2023-03-03T09:23:53;101252.66;;;10.89;56.84
42169;BME280;27838;43.858;25.974;2023-03-03T09:26:26;101251.78;;;10.93;56.17
42169;BME280;27838;43.858;25.974;2023-03-03T09:29:06;101252.72;;;11.04;56.11
42169;BME280;27838;43.858;25.974;2023-03-03T09:31:42;101246.63;;;10.98;56.21
42169;BME280;27838;43.858;25.974;2023-03-03T09:34:21;101250.94;;;10.94;56.17
42169;BME280;27838;43.858;25.974;2023-03-03T09:36:49;101254.41;;;10.94;56.40
42169;BME280;27838;43.858;25.974;2023-03-03T09:58:45;101254.34;;;10.88;56.47
42169;BME280;27838;43.858;25.974;2023-03-03T10:12:38;101244.81;;;10.87;57.03
42169;BME280;27838;43.858;25.974;2023-03-03T10:18:02;101241.41;;;11.02;57.14
42169;BME280;27838;43.858;25.974;2023-03-03T10:20:53;101242.31;;;11.07;56.86
42169;BME280;27838;43.858;25.974;2023-03-03T10:31:42;101218.06;;;11.22;55.85
42169;BME280;27838;43.858;25.974;2023-03-03T10:34:54;101216.34;;;11.27;56.12
42169;BME280;27838;43.858;25.974;2023-03-03T10:42:58;101189.38;;;11.27;56.34
42169;BME280;27838;43.858;25.974;2023-03-03T10:48:29;101182.47;;;11.37;56.47
42169;BME280;27838;43.858;25.974;2023-03-03T11:02:21;101155.50;;;11.41;56.67
42169;BME280;27838;43.858;25.974;2023-03-03T11:07:56;101137.25;;;11.45;55.85
42169;BME280;27838;43.858;25.974;2023-03-03T11:10:43;101139.00;;;11.51;56.17
42169;BME280;27838;43.858;25.974;2023-03-03T11:21:11;101134.66;;;11.53;55.78
42169;BME280;27838;43.858;25.974;2023-03-03T11:29:12;101131.16;;;11.45;56.25
42169;BME280;27838;43.858;25.974;2023-03-03T11:35:02;101127.69;;;11.43;55.76
42169;BME280;27838;43.858;25.974;2023-03-03T11:37:10;101138.13;;;11.41;55.49
42169;BME280;27838;43.858;25.974;2023-03-03T11:39:43;101125.94;;;11.43;55.95
42169;BME280;27838;43.858;25.974;2023-03-03T11:42:24;101128.56;;;11.49;55.73
42169;BME280;27838;43.858;25.974;2023-03-03T11:47:43;101130.28;;;11.41;55.13
42169;BME280;27838;43.858;25.974;2023-03-03T11:50:21;101118.09;;;11.48;54.77
42169;BME280;27838;43.858;25.974;2023-03-03T11:53:14;101113.78;;;11.50;54.94
42169;BME280;27838;43.858;25.974;2023-03-03T11:55:48;101109.44;;;11.53;54.90
42169;BME280;27838;43.858;25.974;2023-03-03T11:58:27;101114.66;;;11.63;54.28
42169;BME280;27838;43.858;25.974;2023-03-03T12:03:46;101111.19;;;11.67;54.43
42169;BME280;27838;43.858;25.974;2023-03-03T12:09:18;101110.34;;;11.69;54.02
42169;BME280;27838;43.858;25.974;2023-03-03T12:11:58;101107.69;;;11.65;54.91
42169;BME280;27838;43.858;25.974;2023-03-03T12:14:38;101103.38;;;11.71;54.66
42169;BME280;27838;43.858;25.974;2023-03-03T12:17:27;101103.38;;;11.76;54.83
42169;BME280;27838;43.858;25.974;2023-03-03T12:20:24;101111.22;;;11.78;54.54
42169;BME280;27838;43.858;25.974;2023-03-03T12:25:42;101108.59;;;11.76;54.63
42169;BME280;27838;43.858;25.974;2023-03-03T12:28:37;101109.47;;;11.75;54.96
42169;BME280;27838;43.858;25.974;2023-03-03T12:31:23;101105.97;;;11.79;54.91
42169;BME280;27838;43.858;25.974;2023-03-03T12:47:39;101101.63;;;11.84;54.35
42169;BME280;27838;43.858;25.974;2023-03-03T12:50:24;101101.69;;;11.90;54.27
42169;BME280;27838;43.858;25.974;2023-03-03T12:56:00;101104.25;;;11.84;54.67
42169;BME280;27838;43.858;25.974;2023-03-03T12:58:51;101106.00;;;11.76;54.66
42169;BME280;27838;43.858;25.974;2023-03-03T13:04:37;101099.84;;;11.62;55.25
42169;BME280;27838;43.858;25.974;2023-03-03T13:07:16;101102.50;;;11.60;54.83
42169;BME280;27838;43.858;25.974;2023-03-03T13:10:26;101105.06;;;11.54;55.53
42169;BME280;27838;43.858;25.974;2023-03-03T13:13:00;101109.41;;;11.57;55.56
42169;BME280;27838;43.858;25.974;2023-03-03T13:15:38;101099.00;;;11.53;55.52
42169;BME280;27838;43.858;25.974;2023-03-03T13:23:35;101108.56;;;11.61;55.16
42169;BME280;27838;43.858;25.974;2023-03-03T13:29:12;101099.00;;;11.75;54.71
42169;BME280;27838;43.858;25.974;2023-03-03T13:31:48;101099.00;;;11.72;54.71
42169;BME280;27838;43.858;25.974;2023-03-03T13:37:00;101097.28;;;11.80;54.47
42169;BME280;27838;43.858;25.974;2023-03-03T13:39:32;101092.03;;;11.74;54.32
42169;BME280;27838;43.858;25.974;2023-03-03T13:42:02;101095.53;;;11.71;54.54
42169;BME280;27838;43.858;25.974;2023-03-03T13:44:39;101099.88;;;11.76;54.80
42169;BME280;27838;43.858;25.974;2023-03-03T13:47:24;101095.56;;;11.76;54.78
42169;BME280;27838;43.858;25.974;2023-03-03T13:52:34;101099.00;;;11.72;55.00
42169;BME280;27838;43.858;25.974;2023-03-03T13:55:20;101099.84;;;11.62;55.18
42169;BME280;27838;43.858;25.974;2023-03-03T13:58:14;101092.03;;;11.56;55.25
42169;BME280;27838;43.858;25.974;2023-03-03T14:05:50;101090.28;;;11.55;55.95
42169;BME280;27838;43.858;25.974;2023-03-03T14:13:32;101074.63;;;11.55;55.47
42169;BME280;27838;43.858;25.974;2023-03-03T14:19:20;101089.38;;;11.48;56.14
42169;BME280;27838;43.858;25.974;2023-03-03T14:25:00;101083.31;;;11.50;56.47
42169;BME280;27838;43.858;25.974;2023-03-03T14:30:36;101088.53;;;11.57;56.14
42169;BME280;27838;43.858;25.974;2023-03-03T14:35:38;101085.06;;;11.55;56.46
42169;BME280;27838;43.858;25.974;2023-03-03T14:38:15;101081.56;;;11.48;56.69
42169;BME280;27838;43.858;25.974;2023-03-03T14:40:46;101085.06;;;11.51;56.79
42169;BME280;27838;43.858;25.974;2023-03-03T14:45:46;101088.53;;;11.60;56.59
42169;BME280;27838;43.858;25.974;2023-03-03T14:50:41;101077.25;;;11.71;56.31
42169;BME280;27838;43.858;25.974;2023-03-03T14:53:38;101076.38;;;11.74;55.63
42169;BME280;27838;43.858;25.974;2023-03-03T14:58:54;101079.88;;;11.64;56.35
42169;BME280;27838;43.858;25.974;2023-03-03T15:01:35;101074.63;;;11.67;55.52
42169;BME280;27838;43.858;25.974;2023-03-03T15:04:23;101072.03;;;11.59;55.96
42169;BME280;27838;43.858;25.974;2023-03-03T15:06:52;101072.88;;;11.57;56.22
42169;BME280;27838;43.858;25.974;2023-03-03T15:12:02;101076.38;;;11.54;56.35
42169;BME280;27838;43.858;25.974;2023-03-03T15:14:37;101065.91;;;11.49;56.58
42169;BME280;27838;43.858;25.974;2023-03-03T15:26:13;101074.56;;;11.39;56.67
42169;BME280;27838;43.858;25.974;2023-03-03T15:45:30;101083.28;;;11.46;57.07
42169;BME280;27838;43.858;25.974;2023-03-03T15:54:13;101096.31;;;11.30;58.21
42169;BME280;27838;43.858;25.974;2023-03-03T15:56:50;101086.72;;;11.25;58.33
42169;BME280;27838;43.858;25.974;2023-03-03T16:08:13;101097.16;;;11.26;59.63
42169;BME280;27838;43.858;25.974;2023-03-03T16:10:59;101110.22;;;11.26;59.57
42169;BME280;27838;43.858;25.974;2023-03-03T16:27:44;101122.41;;;11.27;61.88
42169;BME280;27838;43.858;25.974;2023-03-03T16:30:35;101123.25;;;11.25;61.80
42169;BME280;27838;43.858;25.974;2023-03-03T16:39:10;101124.97;;;11.12;62.78
42169;BME280;27838;43.858;25.974;2023-03-03T16:50:08;101139.72;;;11.07;63.40
42169;BME280;27838;43.858;25.974;2023-03-03T16:52:44;101132.75;;;11.03;63.55
42169;BME280;27838;43.858;25.974;2023-03-03T16:55:35;101147.53;;;11.04;63.71
42169;BME280;27838;43.858;25.974;2023-03-03T17:01:20;101140.53;;;10.95;63.94
42169;BME280;27838;43.858;25.974;2023-03-03T17:07:02;101141.38;;;10.92;64.34
42169;BME280;27838;43.858;25.974;2023-03-03T17:45:11;101162.31;;;11.03;64.60
42169;BME280;27838;43.858;25.974;2023-03-03T17:53:18;101177.00;;;10.86;64.72
42169;BME280;27838;43.858;25.974;2023-03-03T17:56:02;101174.38;;;10.86;64.84
42169;BME280;27838;43.858;25.974;2023-03-03T18:06:40;101172.63;;;10.82;65.27
42169;BME280;27838;43.858;25.974;2023-03-03T18:12:17;101182.16;;;10.76;65.35
42169;BME280;27838;43.858;25.974;2023-03-03T18:17:46;101177.78;;;10.75;65.51
42169;BME280;27838;43.858;25.974;2023-03-03T18:22:46;101185.63;;;10.79;65.24
42169;BME280;27838;43.858;25.974;2023-03-03T18:25:20;101175.16;;;10.72;65.70
42169;BME280;27838;43.858;25.974;2023-03-03T18:30:58;101185.59;;;10.72;65.63
42169;BME280;27838;43.858;25.974;2023-03-03T18:34:00;101185.56;;;10.66;65.64
42169;BME280;27838;43.858;25.974;2023-03-03T18:38:57;101185.47;;;10.58;65.82
42169;BME280;27838;43.858;25.974;2023-03-03T18:41:33;101189.81;;;10.55;66.27
42169;BME280;27838;43.858;25.974;2023-03-03T18:44:26;101199.34;;;10.53;66.37
42169;BME280;27838;43.858;25.974;2023-03-03T18:46:54;101198.53;;;10.55;66.38